FW1358 Weather Reports


time (UTC)temp
F
wind
direction
speed
knots
gust
knots
rain 1hr
in
rain 24hr
in
rain mn
in
humidity
%
barometer
mb
20220927020303 63 306 0.0 0.0 0.00 0.00 0.00 42 1016.9
20220927015304 63 306 0.0 0.0 0.00 0.00 0.00 42 1016.8
20220927013803 64 306 0.0 0.0 0.00 0.00 0.00 43 1016.6
20220927011303 65 306 0.0 0.0 0.00 0.00 0.00 41 1016.3
20220927010303 65 306 0.0 0.0 0.00 0.00 0.00 42 1016.3
20220927003803 67 306 0.0 0.0 0.00 0.00 0.00 39 1015.8
20220927002803 67 306 0.0 0.0 0.00 0.00 0.00 39 1015.6
20220927001303 67 306 0.0 0.0 0.00 0.00 0.00 40 1015.4
20220927000803 67 306 0.0 0.0 0.00 0.00 0.00 40 1015.4
20220927000303 67 306 0.0 0.0 0.00 0.00 0.00 40 1015.5
20220926235305 68 306 0.0 0.0 0.00 0.00 0.00 45 1015.4
20220926234803 68 306 0.0 0.0 0.00 0.00 0.00 41 1015.4
20220926233302 68 306 0.0 0.0 0.00 0.00 0.00 43 1015.1
20220926231302 69 306 0.0 0.0 0.00 0.00 0.00 40 1014.9
20220926224803 71 306 0.0 0.0 0.00 0.00 0.00 37 1014.9
20220926224303 71 306 0.0 0.0 0.00 0.00 0.00 36 1014.8
20220926222803 72 306 0.0 0.0 0.00 0.00 0.00 37 1014.9
20220926220803 74 300 0.0 0.0 0.00 0.00 0.00 30 1014.8
20220926215305 74 282 0.0 0.0 0.00 0.00 0.00 34 1014.7
20220926214803 74 289 0.0 0.0 0.00 0.00 0.00 31 1014.7
20220926212305 76 281 0.0 0.0 0.00 0.00 0.00 28 1014.7
20220926210803 77 315 0.0 0.0 0.00 0.00 0.00 29 1014.6
20220926205803 78 320 0.0 2.6 0.00 0.00 0.00 29 1014.6
20220926193803 79 320 0.0 2.6 0.00 0.00 0.00 31 1014.6
20220926193303 79 299 0.0 2.6 0.00 0.00 0.00 31 1014.6
20220926191803 79 343 0.0 0.0 0.00 0.00 0.00 35 1014.8
20220926184303 79 295 0.0 2.6 0.00 0.00 0.00 34 1015.1
20220926183303 78 340 0.0 2.6 0.00 0.00 0.00 38 1015.2
20220926181803 78 356 0.0 2.6 0.00 0.00 0.00 38 1015.2
20220926175304 77 327 0.0 2.6 0.00 0.00 0.00 40 1015.6
20220926173303 76 329 0.0 7.0 0.00 0.00 0.00 42 1015.7
20220926172802 76 304 0.0 2.6 0.00 0.00 0.00 41 1015.7
20220926172305 76 304 0.9 2.6 0.00 0.00 0.00 41 1015.7
20220926170803 76 298 0.0 0.0 0.00 0.00 0.00 44 1015.7
20220926165803 76 305 0.0 0.0 0.00 0.00 0.00 43 1015.8
20220926165305 76 322 0.0 0.0 0.00 0.00 0.00 45 1015.8
20220926163803 77 299 0.0 2.6 0.00 0.00 0.00 46 1015.9
20220926162305 76 314 0.0 0.0 0.00 0.00 0.00 50 1015.7
20220926160802 76 299 0.0 0.0 0.00 0.00 0.00 46 1015.7
20220926160303 76 295 0.0 0.0 0.00 0.00 0.00 46 1015.7
20220926145304 69 16 0.0 0.0 0.00 0.00 0.00 64 1015.9
20220926142803 65 14 0.0 0.0 0.00 0.00 0.00 76 1015.8
20220926141803 64 15 0.0 0.0 0.00 0.00 0.00 78 1015.8
20220926140303 61 6 0.0 0.0 0.00 0.00 0.00 83 1015.7
20220926133803 56 15 0.0 0.0 0.00 0.00 0.00 95 1015.7
20220926133304 55 15 0.0 0.0 0.00 0.00 0.00 95 1015.6
20220926132803 55 15 0.0 0.0 0.00 0.00 0.00 95 1015.6
20220926132304 54 15 0.0 0.0 0.00 0.00 0.00 95 1015.4
20220926130803 53 15 0.0 0.0 0.00 0.00 0.00 95 1015.4
20220926125803 53 15 0.0 0.0 0.00 0.00 0.00 94 1015.4
20220926124803 52 15 0.0 0.0 0.00 0.00 0.00 94 1015.2
20220926124303 52 15 0.0 0.0 0.00 0.00 0.00 94 1015.4
20220926123803 52 15 0.0 0.0 0.00 0.00 0.00 94 1015.2
20220926120803 52 328 0.0 0.0 0.00 0.00 0.00 94 1015.1
20220926112803 52 287 0.0 0.0 0.00 0.00 0.00 93 1014.9
20220926111803 52 287 0.0 0.0 0.00 0.00 0.00 93 1014.7
20220926111303 52 287 0.0 0.0 0.00 0.00 0.00 93 1014.7
20220926105803 52 287 0.0 0.0 0.00 0.00 0.00 92 1014.4
20220926104803 53 287 0.0 0.0 0.00 0.00 0.00 92 1014.1
20220926104304 53 287 0.0 0.0 0.00 0.00 0.00 92 1014.0
20220926102803 53 286 0.0 0.0 0.00 0.00 0.00 91 1014.0
20220926102305 53 286 0.0 0.0 0.00 0.00 0.00 91 1014.0
20220926100803 53 287 0.0 0.0 0.00 0.00 0.00 91 1013.8
20220926100303 53 287 0.0 0.0 0.00 0.00 0.00 91 1013.9
20220926094803 54 289 0.0 0.0 0.00 0.00 0.00 91 1013.9
20220926092304 54 294 0.0 0.0 0.00 0.00 0.00 90 1013.9
20220926090303 55 294 0.0 0.0 0.00 0.00 0.00 89 1014.0
20220926085803 55 294 0.0 0.0 0.00 0.00 0.00 89 1014.0
20220926085305 55 294 0.0 0.0 0.00 0.00 0.00 89 1014.1
20220926081803 56 294 0.0 0.0 0.00 0.00 0.00 87 1014.1
20220926080303 56 294 0.0 0.0 0.00 0.00 0.00 87 1014.2
20220926075803 56 294 0.0 0.0 0.00 0.00 0.00 87 1014.2
20220926075305 56 294 0.0 0.0 0.00 0.00 0.00 86 1014.3
20220926072803 57 294 0.0 0.0 0.00 0.00 0.00 86 1014.4
20220926070303 58 294 0.0 0.0 0.00 0.00 0.00 81 1014.4
20220926062803 60 311 0.0 0.0 0.00 0.00 0.00 78 1014.3
20220926061303 60 311 0.0 0.0 0.00 0.00 0.00 77 1014.3
20220926051803 62 311 0.0 0.0 0.00 0.01 0.00 67 1014.2
20220926051303 62 311 0.0 0.0 0.00 0.01 0.00 67 1014.3
20220926050303 63 311 0.0 0.0 0.00 0.01 0.00 69 1014.3
20220926045305 63 311 0.0 0.0 0.00 0.01 0.01 70 1014.3
20220926044803 64 311 0.0 0.0 0.00 0.01 0.01 69 1014.4
20220926034803 66 313 0.0 0.0 0.00 0.01 0.01 62 1014.1
20220926034303 67 313 0.0 0.0 0.00 0.01 0.01 65 1014.1
20220926022803 69 313 0.0 0.0 0.00 0.01 0.01 59 1013.5